Time;durP1;ratioP1;P1;durP2;ratioP2;P2;SDS_P1;SDS_P2;PMS_P1;PMS_P2;Temp;Humidity;BMP_temperature;BMP_pressure;BME280_temperature;BME280_humidity;BME280_pressure;Samples;Min_cycle;Max_cycle;Signal;HPM_P1;HPM_P2
2023/06/10 00:00:07;;;;;;;5.50;3.67;;;29.60;34.50;;;;;;5011136;28;20544;-80
2023/06/10 00:02:35;;;;;;;3.80;3.47;;;29.50;34.60;;;;;;5021401;28;20472;-80
2023/06/10 00:05:03;;;;;;;6.80;3.77;;;29.50;34.70;;;;;;5018192;28;20478;-80
2023/06/10 00:07:31;;;;;;;4.40;3.23;;;29.50;34.70;;;;;;5019697;28;20444;-80
2023/06/10 00:10:04;;;;;;;4.17;3.77;;;29.50;34.70;;;;;;5021582;28;20459;-80
2023/06/10 00:12:36;;;;;;;5.43;3.57;;;29.50;34.60;;;;;;5020585;28;20472;-80
2023/06/10 00:15:06;;;;;;;9.83;3.63;;;29.40;34.70;;;;;;5018322;28;20467;-81
2023/06/10 00:17:38;;;;;;;4.27;3.87;;;29.40;34.80;;;;;;5012494;28;20472;-82
2023/06/10 00:20:10;;;;;;;4.00;3.27;;;29.40;34.90;;;;;;5014482;28;20473;-81
2023/06/10 00:22:39;;;;;;;3.80;3.50;;;29.30;35.00;;;;;;5017034;28;20551;-80
2023/06/10 00:25:10;;;;;;;3.30;2.97;;;29.30;35.00;;;;;;5017811;28;20480;-79
2023/06/10 00:27:39;;;;;;;3.70;3.40;;;29.30;35.10;;;;;;5018525;28;20444;-79
2023/06/10 00:30:08;;;;;;;6.80;3.40;;;29.20;35.30;;;;;;5021249;28;20459;-79
2023/06/10 00:32:36;;;;;;;4.90;3.10;;;29.20;35.50;;;;;;5024506;28;20435;-79
2023/06/10 00:35:05;;;;;;;3.50;3.20;;;29.10;35.60;;;;;;5023143;28;20479;-79
2023/06/10 00:37:35;;;;;;;4.70;3.23;;;29.10;35.60;;;;;;5023779;28;20534;-79
2023/06/10 00:40:04;;;;;;;4.13;3.73;;;29.10;35.60;;;;;;5020661;28;20479;-78
2023/06/10 00:42:33;;;;;;;6.63;3.17;;;29.10;35.70;;;;;;5021363;28;20499;-78
2023/06/10 00:45:01;;;;;;;3.43;3.13;;;29.10;35.80;;;;;;5022046;28;20463;-79
2023/06/10 00:47:29;;;;;;;3.70;3.27;;;29.10;35.80;;;;;;5022820;28;20468;-79
2023/06/10 00:49:57;;;;;;;4.43;3.43;;;29.00;35.90;;;;;;5018209;28;20437;-79
2023/06/10 00:52:26;;;;;;;5.13;3.30;;;29.00;36.00;;;;;;5013394;28;20535;-80
2023/06/10 00:54:54;;;;;;;5.33;3.50;;;29.00;36.10;;;;;;5020024;28;20536;-78
2023/06/10 00:57:22;;;;;;;4.73;3.30;;;29.00;36.20;;;;;;5021239;28;20432;-78
2023/06/10 00:59:52;;;;;;;4.20;3.60;;;28.90;36.20;;;;;;5020921;28;20503;-79
2023/06/10 01:02:20;;;;;;;4.70;3.37;;;28.90;36.40;;;;;;5020095;28;20485;-80
2023/06/10 01:04:49;;;;;;;4.27;3.40;;;28.90;36.50;;;;;;5022040;28;20468;-79
2023/06/10 01:07:21;;;;;;;7.80;3.40;;;28.90;36.60;;;;;;5022838;28;20451;-79
2023/06/10 01:09:53;;;;;;;4.00;3.03;;;28.80;36.70;;;;;;5020299;28;20460;-78
2023/06/10 01:12:24;;;;;;;6.10;3.60;;;28.80;37.00;;;;;;5021479;28;20530;-79
2023/06/10 01:14:53;;;;;;;7.43;3.50;;;28.70;37.10;;;;;;5013970;28;20986;-80
2023/06/10 01:17:22;;;;;;;6.37;3.40;;;28.70;37.10;;;;;;5021351;28;20448;-79
2023/06/10 01:19:56;;;;;;;6.93;3.10;;;28.70;37.20;;;;;;5012225;28;20448;-78
2023/06/10 01:22:28;;;;;;;4.97;3.43;;;28.60;37.40;;;;;;5014890;28;20463;-79
2023/06/10 01:24:58;;;;;;;4.27;3.83;;;28.60;37.70;;;;;;5018851;28;20480;-79
2023/06/10 01:27:27;;;;;;;4.37;3.20;;;28.60;37.70;;;;;;5014781;28;20435;-79
2023/06/10 01:37:39;;;;;;;6.87;3.67;;;28.50;37.90;;;;;;5013874;28;20502;-79
2023/06/10 01:40:08;;;;;;;4.23;3.50;;;28.40;38.30;;;;;;5008374;28;20485;-79
2023/06/10 01:42:36;;;;;;;3.93;3.20;;;28.50;38.40;;;;;;5014457;28;20480;-79
2023/06/10 01:45:05;;;;;;;6.90;3.80;;;28.40;38.40;;;;;;5019542;28;20474;-80
2023/06/10 01:47:34;;;;;;;6.57;3.60;;;28.40;38.40;;;;;;5021163;28;20445;-80
2023/06/10 01:50:02;;;;;;;5.77;3.30;;;28.40;38.80;;;;;;5020555;28;20427;-81
2023/06/10 01:52:30;;;;;;;5.07;3.23;;;28.40;38.80;;;;;;5025373;28;20474;-81
2023/06/10 01:55:00;;;;;;;7.57;3.40;;;28.40;38.80;;;;;;5026880;28;20450;-81
2023/06/10 01:57:27;;;;;;;6.67;3.63;;;28.40;38.80;;;;;;5016654;28;20432;-80
2023/06/10 01:59:55;;;;;;;3.83;3.40;;;28.40;38.80;;;;;;5014860;28;20431;-79
2023/06/10 02:02:24;;;;;;;4.60;3.73;;;28.30;39.00;;;;;;5014704;28;20468;-80
2023/06/10 02:04:52;;;;;;;4.20;3.23;;;28.30;39.10;;;;;;5017638;28;20542;-80
2023/06/10 02:07:20;;;;;;;3.77;3.10;;;28.30;39.20;;;;;;5027620;28;20453;-80
2023/06/10 02:09:48;;;;;;;5.33;3.50;;;28.30;39.20;;;;;;5027533;28;20452;-80
2023/06/10 02:12:17;;;;;;;7.17;3.67;;;28.40;39.30;;;;;;5026629;28;20427;-79
2023/06/10 02:14:45;;;;;;;6.80;3.63;;;28.30;39.30;;;;;;5027207;28;20426;-82
2023/06/10 02:17:14;;;;;;;4.90;3.70;;;28.30;39.30;;;;;;5021884;28;21598;-82
2023/06/10 02:19:43;;;;;;;4.50;3.00;;;28.30;39.40;;;;;;5025674;28;20453;-82
2023/06/10 02:22:11;;;;;;;7.43;3.50;;;28.30;39.50;;;;;;5025244;28;20465;-80
2023/06/10 02:24:39;;;;;;;7.73;3.60;;;28.30;39.50;;;;;;5025801;28;20495;-80
2023/06/10 02:27:07;;;;;;;5.37;3.33;;;28.30;39.60;;;;;;5031145;28;20472;-81
2023/06/10 02:29:37;;;;;;;4.30;3.00;;;28.30;39.70;;;;;;5028921;28;20423;-83
2023/06/10 02:32:06;;;;;;;5.50;3.43;;;28.20;39.70;;;;;;5028713;28;20476;-82
2023/06/10 02:34:38;;;;;;;3.73;3.43;;;28.20;39.80;;;;;;5023791;28;20490;-83
2023/06/10 02:37:06;;;;;;;4.70;3.30;;;28.20;39.90;;;;;;5024305;28;20460;-80
2023/06/10 02:39:34;;;;;;;7.60;3.90;;;28.20;40.50;;;;;;5024476;28;20434;-82
2023/06/10 02:42:02;;;;;;;3.73;3.20;;;28.20;40.00;;;;;;5020749;28;20457;-81
2023/06/10 02:44:30;;;;;;;5.20;3.40;;;28.10;40.00;;;;;;5025725;28;20423;-81
2023/06/10 02:47:00;;;;;;;5.90;3.17;;;28.20;40.10;;;;;;5028706;28;20511;-78
2023/06/10 02:49:28;;;;;;;7.23;4.00;;;28.10;40.20;;;;;;5029817;28;20440;-82
2023/06/10 02:51:56;;;;;;;6.00;3.30;;;28.10;40.20;;;;;;5028977;28;20488;-81
2023/06/10 02:54:24;;;;;;;5.90;3.43;;;28.10;40.30;;;;;;5029113;28;20415;-82
2023/06/10 02:56:55;;;;;;;4.23;3.50;;;28.00;40.30;;;;;;5021362;28;20468;-80
2023/06/10 02:59:23;;;;;;;4.63;2.90;;;28.00;40.40;;;;;;5015866;28;20475;-80
2023/06/10 03:01:52;;;;;;;10.43;3.70;;;28.00;40.40;;;;;;5011335;28;20447;-79
2023/06/10 03:04:23;;;;;;;5.90;3.30;;;28.00;40.40;;;;;;5009086;28;20484;-80
2023/06/10 03:06:51;;;;;;;6.03;3.40;;;28.00;40.50;;;;;;5020364;28;20468;-79
2023/06/10 03:09:19;;;;;;;3.10;2.90;;;28.00;40.50;;;;;;5008721;28;20453;-80
2023/06/10 03:11:48;;;;;;;4.80;3.57;;;28.00;40.60;;;;;;5011523;28;20426;-80
2023/06/10 03:14:16;;;;;;;6.73;3.97;;;27.90;40.50;;;;;;5008158;28;20455;-79
2023/06/10 03:16:45;;;;;;;3.70;3.37;;;27.90;41.20;;;;;;5021195;28;20414;-79
2023/06/10 03:19:13;;;;;;;4.90;3.30;;;27.90;40.60;;;;;;5013721;28;20403;-79
2023/06/10 03:21:44;;;;;;;5.43;3.80;;;27.90;40.60;;;;;;5013965;28;20434;-79
2023/06/10 03:24:13;;;;;;;5.73;3.67;;;27.90;40.70;;;;;;5019431;28;20475;-80
2023/06/10 03:26:41;;;;;;;6.63;3.77;;;27.90;40.80;;;;;;5020456;28;20499;-81
2023/06/10 03:29:10;;;;;;;6.10;3.53;;;27.90;40.80;;;;;;5023978;28;20434;-81
2023/06/10 03:31:38;;;;;;;4.93;4.00;;;27.80;40.80;;;;;;5023207;28;20460;-80
2023/06/10 03:34:06;;;;;;;6.20;3.50;;;27.80;40.80;;;;;;5024401;28;20459;-80
2023/06/10 03:36:37;;;;;;;4.90;3.57;;;27.80;40.90;;;;;;5014496;28;20441;-80
2023/06/10 03:39:07;;;;;;;4.13;3.50;;;27.80;40.90;;;;;;5017745;28;20463;-80
2023/06/10 03:41:35;;;;;;;5.60;3.77;;;27.80;40.90;;;;;;5022409;28;20471;-80
2023/06/10 03:44:03;;;;;;;6.30;3.50;;;27.80;41.00;;;;;;5024109;28;20419;-81
2023/06/10 03:46:31;;;;;;;4.40;3.30;;;27.80;40.90;;;;;;5024303;28;20526;-80
2023/06/10 03:49:01;;;;;;;7.00;3.97;;;27.80;41.00;;;;;;5026200;28;20432;-81
2023/06/10 03:51:28;;;;;;;6.53;4.10;;;27.80;41.10;;;;;;5020931;28;20495;-81
2023/06/10 03:53:57;;;;;;;4.90;3.73;;;27.80;41.10;;;;;;5024721;28;20457;-79
2023/06/10 03:56:26;;;;;;;10.30;3.40;;;27.70;41.10;;;;;;5023355;28;20448;-81
2023/06/10 03:58:54;;;;;;;5.80;3.77;;;27.80;41.10;;;;;;5018445;28;20423;-81
2023/06/10 04:01:24;;;;;;;4.90;3.70;;;27.70;41.20;;;;;;5026589;28;20427;-81
2023/06/10 04:03:53;;;;;;;4.23;3.83;;;27.70;41.10;;;;;;5027110;28;20468;-78
2023/06/10 04:06:25;;;;;;;8.57;3.50;;;27.80;41.30;;;;;;5026748;28;21053;-81
2023/06/10 04:08:53;;;;;;;6.43;3.53;;;27.70;41.20;;;;;;5025091;28;20498;-81
2023/06/10 04:11:21;;;;;;;6.40;4.10;;;27.70;41.30;;;;;;5024473;28;20445;-82
2023/06/10 04:13:51;;;;;;;3.73;3.33;;;27.70;41.40;;;;;;5012351;28;20456;-80
2023/06/10 04:16:20;;;;;;;6.80;3.77;;;27.70;41.40;;;;;;5026928;28;20436;-81
2023/06/10 04:18:49;;;;;;;6.33;3.70;;;27.70;41.30;;;;;;5026214;28;20476;-82
2023/06/10 04:21:17;;;;;;;5.07;3.60;;;27.60;41.40;;;;;;5026621;28;20419;-82
2023/06/10 04:23:49;;;;;;;5.30;4.17;;;27.70;41.40;;;;;;5025999;28;20495;-79
2023/06/10 04:26:17;;;;;;;4.47;3.50;;;27.70;41.40;;;;;;5025878;28;20479;-81
2023/06/10 04:28:45;;;;;;;5.87;3.90;;;27.60;41.40;;;;;;5021153;28;20507;-81
2023/06/10 04:31:15;;;;;;;6.10;4.40;;;27.60;41.30;;;;;;5024447;28;20458;-82
2023/06/10 04:33:43;;;;;;;5.10;4.10;;;27.50;41.30;;;;;;5025141;28;20454;-80
2023/06/10 04:36:12;;;;;;;5.37;4.20;;;27.50;41.60;;;;;;5024388;28;20468;-80
2023/06/10 04:38:40;;;;;;;4.27;3.80;;;27.50;41.40;;;;;;5024213;28;20447;-82
2023/06/10 04:41:09;;;;;;;4.30;3.90;;;27.50;41.60;;;;;;5023888;28;20427;-80
2023/06/10 04:43:37;;;;;;;4.07;3.67;;;27.50;41.70;;;;;;5023607;28;20468;-80
2023/06/10 04:46:05;;;;;;;5.37;3.90;;;27.50;41.60;;;;;;5021232;28;20491;-80
2023/06/10 04:48:37;;;;;;;4.23;3.63;;;27.50;41.60;;;;;;5020270;28;20868;-81
2023/06/10 04:51:06;;;;;;;6.90;4.10;;;27.50;41.60;;;;;;5023366;28;20462;-81
2023/06/10 04:53:34;;;;;;;6.50;3.93;;;27.50;41.60;;;;;;5012662;28;20452;-82
2023/06/10 04:56:02;;;;;;;4.87;3.90;;;27.50;41.60;;;;;;5018361;28;20469;-81
2023/06/10 04:58:30;;;;;;;10.37;4.40;;;27.40;41.60;;;;;;5018632;28;20438;-82
2023/06/10 05:00:58;;;;;;;5.17;4.07;;;27.40;41.50;;;;;;5018711;28;20426;-81
2023/06/10 05:03:26;;;;;;;4.57;3.47;;;27.50;41.70;;;;;;5019445;28;20488;-82
2023/06/10 05:05:56;;;;;;;5.30;3.47;;;27.40;41.60;;;;;;5017286;28;20488;-82
2023/06/10 05:08:24;;;;;;;5.97;3.70;;;27.40;41.60;;;;;;5016954;28;20423;-83
2023/06/10 05:10:52;;;;;;;5.80;3.60;;;27.40;41.70;;;;;;5018782;28;20423;-81
2023/06/10 05:13:20;;;;;;;5.77;3.97;;;27.50;41.60;;;;;;5011940;28;20447;-81
2023/06/10 05:15:49;;;;;;;5.47;3.77;;;27.40;41.50;;;;;;5022218;28;20438;-82
2023/06/10 05:18:17;;;;;;;6.37;3.60;;;27.50;41.60;;;;;;5022524;28;20485;-82
2023/06/10 05:20:45;;;;;;;6.37;3.53;;;27.50;41.60;;;;;;5022463;28;20448;-81
2023/06/10 05:23:14;;;;;;;4.80;3.97;;;27.40;41.50;;;;;;5015095;28;20893;-83
2023/06/10 05:25:43;;;;;;;5.23;3.47;;;27.50;41.60;;;;;;5022096;28;20445;-81
2023/06/10 05:28:11;;;;;;;6.07;3.90;;;27.50;41.50;;;;;;5016842;28;20419;-82
2023/06/10 05:30:42;;;;;;;11.13;3.80;;;27.40;42.20;;;;;;5023642;28;20426;-82
2023/06/10 05:33:10;;;;;;;3.87;3.37;;;27.40;41.60;;;;;;5021531;28;20464;-81
2023/06/10 05:35:39;;;;;;;4.57;3.40;;;27.40;41.50;;;;;;5021405;28;20445;-82
2023/06/10 05:38:07;;;;;;;4.73;3.60;;;27.40;41.50;;;;;;5021049;28;20449;-82
2023/06/10 05:40:36;;;;;;;7.47;3.90;;;27.50;41.60;;;;;;5018624;28;20423;-82
2023/06/10 05:43:05;;;;;;;4.30;3.87;;;27.50;41.50;;;;;;5021237;28;20543;-82
2023/06/10 05:45:34;;;;;;;9.40;3.97;;;27.50;41.50;;;;;;5021579;28;20455;-82
2023/06/10 05:48:02;;;;;;;4.87;3.37;;;27.50;41.50;;;;;;5021465;28;20493;-82
2023/06/10 05:50:30;;;;;;;5.23;3.67;;;27.50;41.50;;;;;;5021180;28;20431;-81
2023/06/10 05:52:58;;;;;;;8.80;3.87;;;27.50;41.50;;;;;;5016687;28;20487;-82
2023/06/10 05:55:26;;;;;;;5.53;3.40;;;27.50;41.50;;;;;;5020892;28;20448;-82
2023/06/10 05:58:01;;;;;;;6.63;4.10;;;27.50;41.50;;;;;;5014535;28;20425;-83
2023/06/10 06:00:28;;;;;;;7.10;4.13;;;27.50;41.50;;;;;;5021061;28;20463;-82
2023/06/10 06:02:58;;;;;;;4.07;3.53;;;27.50;41.50;;;;;;5020846;28;20439;-83
2023/06/10 06:05:27;;;;;;;5.37;4.10;;;27.50;41.50;;;;;;5012434;28;20425;-82
2023/06/10 06:07:55;;;;;;;4.50;3.73;;;27.50;41.50;;;;;;5020736;28;20439;-83
2023/06/10 06:10:23;;;;;;;8.50;3.80;;;27.50;41.40;;;;;;5022290;28;20452;-82
2023/06/10 06:12:51;;;;;;;4.47;3.50;;;27.50;41.40;;;;;;5007833;28;20489;-83
2023/06/10 06:15:23;;;;;;;8.40;3.10;;;27.50;41.40;;;;;;5022960;28;20464;-82
2023/06/10 06:17:52;;;;;;;7.33;4.20;;;27.50;41.40;;;;;;5021701;28;20471;-83
2023/06/10 06:20:20;;;;;;;6.60;3.90;;;27.50;41.40;;;;;;5020290;28;20452;-82
2023/06/10 06:22:48;;;;;;;4.33;3.27;;;27.50;41.40;;;;;;5023903;28;20470;-81
2023/06/10 06:25:17;;;;;;;5.10;3.70;;;27.60;41.40;;;;;;5022024;28;20440;-80
2023/06/10 06:27:45;;;;;;;6.43;4.40;;;27.60;41.30;;;;;;5021343;28;20446;-82
2023/06/10 06:30:13;;;;;;;7.63;4.00;;;27.60;41.30;;;;;;5021869;28;20427;-81
2023/06/10 06:32:42;;;;;;;8.27;4.17;;;27.60;41.30;;;;;;5009260;28;20446;-82
2023/06/10 06:35:11;;;;;;;5.23;3.40;;;27.60;41.30;;;;;;5016143;28;20459;-82
2023/06/10 06:37:39;;;;;;;7.23;4.33;;;27.60;41.30;;;;;;5022243;28;20504;-82
2023/06/10 06:40:08;;;;;;;4.33;3.90;;;27.60;41.30;;;;;;5021238;28;20448;-81
2023/06/10 06:42:36;;;;;;;5.13;3.73;;;27.60;41.40;;;;;;5020258;28;20476;-82
2023/06/10 06:45:04;;;;;;;6.63;4.37;;;27.60;41.40;;;;;;5021575;28;20406;-81
2023/06/10 06:47:33;;;;;;;4.20;3.90;;;27.60;41.30;;;;;;5021962;28;21045;-82
2023/06/10 06:50:02;;;;;;;5.20;4.40;;;27.60;41.90;;;;;;5015383;28;20522;-80
2023/06/10 06:52:31;;;;;;;5.83;4.40;;;27.60;41.30;;;;;;5021282;28;20443;-81
2023/06/10 06:54:58;;;;;;;6.87;4.07;;;27.60;41.30;;;;;;5020994;28;20512;-82
2023/06/10 06:57:26;;;;;;;6.37;4.10;;;27.70;41.40;;;;;;5020765;28;20418;-83
2023/06/10 06:59:54;;;;;;;6.53;4.60;;;27.70;41.40;;;;;;5020679;28;20448;-82
2023/06/10 07:02:22;;;;;;;5.27;3.67;;;27.70;41.40;;;;;;5019527;28;20438;-81
2023/06/10 07:04:51;;;;;;;6.47;4.60;;;27.70;41.30;;;;;;5021481;28;20498;-82
2023/06/10 07:07:20;;;;;;;7.07;4.37;;;27.70;41.30;;;;;;5007452;28;20472;-81
2023/06/10 07:09:48;;;;;;;9.03;4.87;;;27.70;41.30;;;;;;5019645;28;20432;-82
2023/06/10 07:12:17;;;;;;;10.07;4.30;;;27.80;41.20;;;;;;5020150;28;20464;-82
2023/06/10 07:14:45;;;;;;;5.50;4.43;;;27.80;41.30;;;;;;5020116;28;20415;-82
2023/06/10 07:17:13;;;;;;;7.80;5.10;;;27.80;41.20;;;;;;5019774;28;20483;-83
2023/06/10 07:19:41;;;;;;;6.07;4.90;;;27.90;41.20;;;;;;5020059;28;20445;-81
2023/06/10 07:22:10;;;;;;;7.57;4.90;;;27.90;41.10;;;;;;5020031;28;20500;-82
2023/06/10 07:24:39;;;;;;;5.53;4.47;;;27.90;41.00;;;;;;5018754;28;20423;-82
2023/06/10 07:27:07;;;;;;;4.73;4.30;;;27.90;41.00;;;;;;5020431;28;20459;-83
2023/06/10 07:29:36;;;;;;;5.10;4.60;;;27.90;41.00;;;;;;5019812;28;20476;-83
2023/06/10 07:32:04;;;;;;;5.80;4.70;;;27.90;40.90;;;;;;5020448;28;20443;-83
2023/06/10 07:34:32;;;;;;;4.97;4.40;;;28.00;40.90;;;;;;5019541;28;20419;-83
2023/06/10 07:37:00;;;;;;;6.03;4.70;;;28.00;40.80;;;;;;5020291;28;20427;-82
2023/06/10 07:39:29;;;;;;;5.60;5.00;;;28.10;40.70;;;;;;5019534;28;20475;-83
2023/06/10 07:41:58;;;;;;;8.13;4.50;;;28.10;40.70;;;;;;5020407;28;20460;-83
2023/06/10 07:44:27;;;;;;;6.80;4.77;;;28.10;40.50;;;;;;5017926;28;20480;-82
2023/06/10 07:46:55;;;;;;;5.20;4.70;;;28.20;40.60;;;;;;5015146;28;20411;-83
2023/06/10 07:49:23;;;;;;;7.10;5.00;;;28.20;40.50;;;;;;5018971;28;20472;-82
2023/06/10 07:51:51;;;;;;;4.87;4.47;;;28.20;40.50;;;;;;5020031;28;20431;-83
2023/06/10 07:54:20;;;;;;;4.73;4.17;;;28.20;40.50;;;;;;5019230;28;20423;-83
2023/06/10 07:56:48;;;;;;;4.93;4.50;;;28.30;40.50;;;;;;5018736;28;20456;-83
2023/06/10 07:59:18;;;;;;;5.10;4.60;;;28.30;40.60;;;;;;5020032;28;20419;-83
2023/06/10 08:01:46;;;;;;;5.80;5.20;;;28.30;40.30;;;;;;5012027;28;20507;-83
2023/06/10 08:04:15;;;;;;;11.23;4.70;;;28.30;40.40;;;;;;5018595;28;20444;-82
2023/06/10 08:06:43;;;;;;;4.60;4.20;;;28.40;40.40;;;;;;5019328;28;20452;-83
2023/06/10 08:09:11;;;;;;;7.90;5.03;;;28.40;40.40;;;;;;5012357;28;20533;-82
2023/06/10 08:11:39;;;;;;;7.50;4.30;;;28.40;40.30;;;;;;5018020;28;20523;-83
2023/06/10 08:14:08;;;;;;;7.20;4.70;;;28.50;40.40;;;;;;5018792;28;20449;-82
2023/06/10 08:16:37;;;;;;;10.40;4.70;;;28.60;40.40;;;;;;5011626;28;20476;-83
2023/06/10 08:19:05;;;;;;;7.67;4.70;;;28.60;40.30;;;;;;5018647;28;20433;-84
2023/06/10 08:21:36;;;;;;;7.00;4.40;;;28.70;41.00;;;;;;5005540;28;20451;-84
2023/06/10 08:24:05;;;;;;;5.07;4.53;;;28.70;40.20;;;;;;5013385;28;20449;-84
2023/06/10 08:26:33;;;;;;;8.60;5.13;;;28.80;40.20;;;;;;5016122;28;20444;-83
2023/06/10 08:29:01;;;;;;;10.77;4.83;;;28.80;40.20;;;;;;5013081;28;20469;-82
2023/06/10 08:31:29;;;;;;;5.73;5.00;;;28.80;40.10;;;;;;5016383;28;20498;-82
2023/06/10 08:33:58;;;;;;;7.23;4.90;;;28.90;40.20;;;;;;5012601;28;21000;-83
2023/06/10 08:36:26;;;;;;;13.70;5.00;;;28.90;40.00;;;;;;5014854;28;20440;-82
2023/06/10 08:38:55;;;;;;;6.47;5.37;;;28.90;40.20;;;;;;5011711;28;20447;-83
2023/06/10 08:41:23;;;;;;;7.00;5.23;;;29.00;40.10;;;;;;5019655;28;20437;-83
2023/06/10 08:43:55;;;;;;;8.20;5.40;;;29.10;40.00;;;;;;5006682;28;20459;-83
2023/06/10 08:46:23;;;;;;;7.37;5.30;;;29.10;40.10;;;;;;5019826;28;20471;-83
2023/06/10 08:48:53;;;;;;;9.80;5.80;;;29.10;40.70;;;;;;5010834;28;20514;-83
2023/06/10 08:51:23;;;;;;;12.30;6.23;;;29.20;40.00;;;;;;5021285;28;20487;-83
2023/06/10 08:53:56;;;;;;;8.43;6.20;;;29.20;39.90;;;;;;5015739;28;20468;-83
2023/06/10 08:56:25;;;;;;;7.63;5.47;;;29.30;39.90;;;;;;5021551;28;20432;-83
2023/06/10 08:58:54;;;;;;;10.97;5.80;;;29.30;39.80;;;;;;5011305;28;20481;-82
2023/06/10 09:01:22;;;;;;;6.83;5.77;;;29.40;39.80;;;;;;5017492;28;20456;-83
2023/06/10 09:03:50;;;;;;;9.13;5.40;;;29.40;39.80;;;;;;5018742;28;20555;-83
2023/06/10 09:06:18;;;;;;;9.00;6.10;;;29.50;39.80;;;;;;5007865;28;20452;-82
2023/06/10 09:08:48;;;;;;;8.70;5.53;;;29.60;39.60;;;;;;5016338;28;20481;-82
2023/06/10 09:11:16;;;;;;;10.30;4.90;;;29.60;39.40;;;;;;5016561;28;20464;-80
2023/06/10 09:13:44;;;;;;;10.73;4.93;;;29.80;39.30;;;;;;5020725;28;20901;-81
2023/06/10 09:16:12;;;;;;;11.03;6.00;;;29.80;39.50;;;;;;5020146;28;20455;-81
2023/06/10 09:18:40;;;;;;;12.20;6.57;;;29.80;39.20;;;;;;5013202;28;20488;-82
2023/06/10 09:21:08;;;;;;;9.57;6.03;;;29.70;39.50;;;;;;5018106;28;20552;-79
2023/06/10 09:23:36;;;;;;;7.13;5.57;;;29.80;39.40;;;;;;5014580;28;20464;-81
2023/06/10 09:26:10;;;;;;;6.90;5.50;;;29.80;39.40;;;;;;5006681;28;20436;-80
2023/06/10 09:28:39;;;;;;;9.70;5.57;;;29.90;39.10;;;;;;5009268;28;20511;-80
2023/06/10 09:31:07;;;;;;;6.73;5.40;;;30.00;39.40;;;;;;5010958;28;20456;-79
2023/06/10 09:33:38;;;;;;;7.53;6.40;;;29.90;38.90;;;;;;5018761;28;20472;-81
2023/06/10 09:36:07;;;;;;;10.57;6.50;;;29.80;39.70;;;;;;5018837;28;20449;-81
2023/06/10 09:38:35;;;;;;;8.30;6.00;;;29.60;39.00;;;;;;5014978;28;20476;-81
2023/06/10 09:41:05;;;;;;;6.90;6.20;;;29.70;39.80;;;;;;5021433;28;20436;-81
2023/06/10 09:43:41;;;;;;;10.43;5.67;;;29.90;39.20;;;;;;5014611;28;20650;-81
2023/06/10 09:46:16;;;;;;;6.13;5.53;;;29.90;39.00;;;;;;5010886;28;20490;-81
2023/06/10 09:48:44;;;;;;;6.03;4.93;;;29.90;39.30;;;;;;5014071;28;20475;-79
2023/06/10 09:51:12;;;;;;;7.23;4.90;;;29.90;39.30;;;;;;5017940;28;20512;-80
2023/06/10 09:53:41;;;;;;;17.33;5.87;;;29.90;39.50;;;;;;5007985;28;20473;-81
2023/06/10 09:56:10;;;;;;;9.70;5.47;;;30.00;39.60;;;;;;5008557;28;20453;-78
2023/06/10 09:58:39;;;;;;;13.30;5.37;;;29.80;40.00;;;;;;5017197;28;20540;-80
2023/06/10 10:01:09;;;;;;;19.67;13.70;;;29.70;40.10;;;;;;5021149;28;20534;-80
2023/06/10 10:03:45;;;;;;;19.73;9.87;;;29.50;40.60;;;;;;5021989;28;20460;-80
2023/06/10 10:06:13;;;;;;;15.47;9.30;;;29.60;40.60;;;;;;5017351;28;20444;-81
2023/06/10 10:08:41;;;;;;;23.47;9.70;;;29.50;41.00;;;;;;5018858;28;20471;-80
2023/06/10 10:11:11;;;;;;;10.40;6.33;;;29.60;41.10;;;;;;5018325;28;20498;-80
2023/06/10 10:13:39;;;;;;;8.07;5.63;;;29.60;40.50;;;;;;5013270;28;20480;-82
2023/06/10 10:16:15;;;;;;;10.90;4.50;;;29.30;40.60;;;;;;5022335;28;20471;-81
2023/06/10 10:18:49;;;;;;;9.83;4.43;;;29.30;41.20;;;;;;5019626;28;20436;-81
2023/06/10 10:21:17;;;;;;;11.40;5.40;;;29.50;41.00;;;;;;5018346;28;20444;-81
2023/06/10 10:23:52;;;;;;;7.37;4.83;;;29.70;40.80;;;;;;5021839;28;20460;-80
2023/06/10 10:26:22;;;;;;;9.70;4.30;;;29.80;41.00;;;;;;5020338;28;20439;-80
2023/06/10 10:28:54;;;;;;;15.50;4.50;;;29.90;40.30;;;;;;5010904;28;20475;-79
2023/06/10 10:31:22;;;;;;;7.27;3.73;;;29.90;40.70;;;;;;5023527;28;20548;-80
2023/06/10 10:33:56;;;;;;;7.30;3.80;;;30.10;40.40;;;;;;5020301;28;20481;-81
2023/06/10 10:36:24;;;;;;;9.83;4.03;;;30.20;39.80;;;;;;5014258;28;20479;-78
2023/06/10 10:38:53;;;;;;;6.90;3.77;;;30.40;40.50;;;;;;5019646;28;20448;-79
2023/06/10 10:41:22;;;;;;;4.53;3.63;;;30.60;39.40;;;;;;5020624;28;20472;-78
2023/06/10 10:43:51;;;;;;;3.60;3.30;;;30.60;39.10;;;;;;5021468;28;20479;-80
2023/06/10 10:46:19;;;;;;;6.33;3.80;;;30.70;39.30;;;;;;5015613;28;20456;-79
2023/06/10 10:48:52;;;;;;;11.57;3.77;;;30.80;39.10;;;;;;5022781;28;20440;-78
2023/06/10 10:51:20;;;;;;;8.23;3.50;;;30.70;39.10;;;;;;5023334;28;20440;-79
2023/06/10 10:54:13;;;;;;;6.87;3.40;;;30.80;39.00;;;;;;5023404;28;21567;-80
2023/06/10 10:57:10;;;;;;;6.77;4.03;;;31.00;38.50;;;;;;5022400;28;20444;-80
2023/06/10 10:59:46;;;;;;;7.83;4.60;;;31.00;38.40;;;;;;5020362;28;20444;-80
2023/06/10 11:02:18;;;;;;;6.77;5.90;;;31.10;38.50;;;;;;5018537;28;20598;-81
2023/06/10 11:04:47;;;;;;;9.23;4.80;;;31.20;38.40;;;;;;5021024;28;20448;-80
2023/06/10 11:07:16;;;;;;;8.30;5.40;;;31.30;37.90;;;;;;5021832;28;20449;-79
2023/06/10 11:09:59;;;;;;;8.30;5.07;;;31.30;38.00;;;;;;5014328;28;20469;-81
2023/06/10 11:12:57;;;;;;;4.70;3.70;;;31.40;38.00;;;;;;5021759;28;20456;-81
2023/06/10 11:15:26;;;;;;;8.80;3.93;;;31.30;37.50;;;;;;4983126;28;20468;-82
2023/06/10 11:18:20;;;;;;;10.30;3.50;;;31.30;37.50;;;;;;5018623;28;20452;-83
2023/06/10 11:21:01;;;;;;;4.17;3.53;;;31.30;37.40;;;;;;5023351;28;20963;-79
2023/06/10 11:23:34;;;;;;;5.40;3.83;;;31.30;37.00;;;;;;5023315;28;20556;-81
2023/06/10 11:26:15;;;;;;;7.63;3.40;;;31.40;37.30;;;;;;5004673;28;20511;-81
2023/06/10 11:29:05;;;;;;;4.43;3.30;;;31.50;37.20;;;;;;5010003;28;20472;-82
2023/06/10 11:31:33;;;;;;;6.43;3.30;;;31.60;37.30;;;;;;5010327;28;20451;-79
2023/06/10 11:34:04;;;;;;;9.00;3.43;;;31.60;37.20;;;;;;5013166;28;20480;-79
2023/06/10 11:36:33;;;;;;;4.53;3.23;;;31.60;37.30;;;;;;5021298;28;20504;-80
2023/06/10 11:39:02;;;;;;;5.67;3.60;;;31.70;37.00;;;;;;5016807;28;20476;-78
2023/06/10 11:41:31;;;;;;;4.43;3.40;;;31.80;37.10;;;;;;5007642;28;20438;-80
2023/06/10 11:44:04;;;;;;;5.93;3.53;;;31.80;36.80;;;;;;5014129;28;20535;-82
2023/06/10 11:46:32;;;;;;;7.10;3.77;;;31.80;36.70;;;;;;5012409;28;20481;-80
2023/06/10 11:49:02;;;;;;;10.93;3.93;;;31.90;37.20;;;;;;5011377;28;20444;-80
2023/06/10 11:51:30;;;;;;;4.03;3.50;;;32.00;36.70;;;;;;5003223;28;20473;-79
2023/06/10 11:53:58;;;;;;;7.97;3.67;;;32.10;36.70;;;;;;5007358;28;20452;-80
2023/06/10 11:56:27;;;;;;;6.10;3.80;;;32.10;36.60;;;;;;5014908;28;20531;-80
2023/06/10 11:58:55;;;;;;;4.43;3.50;;;32.20;36.40;;;;;;5014959;28;20453;-80
2023/06/10 12:01:26;;;;;;;8.87;3.93;;;32.20;36.70;;;;;;5016387;28;20451;-80
2023/06/10 12:04:00;;;;;;;4.37;3.77;;;32.20;36.40;;;;;;5016016;28;20452;-81
2023/06/10 12:06:38;;;;;;;6.20;3.70;;;32.30;35.80;;;;;;5008403;28;20496;-81
2023/06/10 12:09:06;;;;;;;8.00;3.70;;;32.30;35.90;;;;;;5002482;28;20463;-80
2023/06/10 12:11:51;;;;;;;3.70;3.30;;;32.20;35.20;;;;;;5010676;28;21040;-80
2023/06/10 12:14:56;;;;;;;6.00;3.90;;;32.30;35.50;;;;;;5004767;28;20449;-81
2023/06/10 12:17:37;;;;;;;4.03;3.50;;;32.30;35.30;;;;;;5018600;28;20444;-79
2023/06/10 12:20:07;;;;;;;4.63;3.73;;;32.30;34.80;;;;;;5013690;28;20413;-81
2023/06/10 12:22:39;;;;;;;8.23;4.13;;;32.30;35.00;;;;;;5020110;28;20456;-80
2023/06/10 12:25:08;;;;;;;4.33;4.00;;;32.40;35.20;;;;;;5016900;28;20453;-81
2023/06/10 12:27:37;;;;;;;7.67;3.90;;;32.40;35.20;;;;;;5025725;28;20422;-81
2023/06/10 12:30:06;;;;;;;4.10;3.80;;;32.50;35.20;;;;;;5022548;28;20465;-81
2023/06/10 12:32:43;;;;;;;4.70;3.50;;;32.50;35.30;;;;;;5014536;28;20468;-81
2023/06/10 12:35:12;;;;;;;5.50;3.70;;;32.50;35.00;;;;;;5016732;28;20483;-82
2023/06/10 12:37:41;;;;;;;6.30;3.73;;;32.60;34.90;;;;;;5024845;28;20451;-81
2023/06/10 12:40:11;;;;;;;7.00;3.77;;;32.50;34.70;;;;;;5005527;28;20446;-80
2023/06/10 12:42:41;;;;;;;4.33;3.90;;;32.60;34.70;;;;;;5022474;28;20461;-83
2023/06/10 12:45:11;;;;;;;6.10;3.37;;;32.60;34.60;;;;;;5024518;28;20472;-81
2023/06/10 12:47:42;;;;;;;8.03;3.90;;;32.60;34.30;;;;;;5023394;28;20448;-81
2023/06/10 12:50:11;;;;;;;4.77;3.63;;;32.60;34.40;;;;;;5003394;28;20548;-81
2023/06/10 12:52:42;;;;;;;7.27;3.90;;;32.60;34.00;;;;;;5007187;28;20453;-81
2023/06/10 12:55:10;;;;;;;4.33;3.03;;;32.60;33.90;;;;;;5006077;28;20445;-80
2023/06/10 12:57:48;;;;;;;4.17;3.77;;;32.60;33.80;;;;;;5006238;28;20483;-79
2023/06/10 13:00:17;;;;;;;6.53;4.00;;;32.60;33.70;;;;;;5009831;28;20452;-78
2023/06/10 13:02:48;;;;;;;7.30;3.57;;;32.60;33.70;;;;;;5000130;28;20927;-79
2023/06/10 13:05:16;;;;;;;5.60;3.43;;;32.60;33.90;;;;;;5002759;28;20432;-79